»·PEaware :: N79CA KFLG-KTEX

N79CA :: KFLG-KTEX

FLIGHT INFORMATION

Flight Status: Arrived
Operator: Privately registered:
United States
More flights under this callsign
Pilot: Ian G. (41107)
Aircraft: Cessna 525C Citation CJ4
(C25C)
More flights by this aircraft type
Origin: KFLG Flagstaff Pulliam
United States
Destination: KTEX Telluride Regl
United States
More flights between these airports :: More routes between these airports
Route: FLG1 OATES FRISY DVC ETL
File this flight plan on PilotEdge
Remarks: RMK / SIMBRIEF
Altitude:
(Current/Filed)
35,000ft
Speed:
(Current/Filed)
434kts
Departed: 31-May-23 03:25 PM
Arrived: 31-May-23 04:08 PM
Distance/Time
Traveled:
248nm/0:43
Distance/Time
To Go:
Arrived

Flight Plot

Page will automatically refresh every two minutes.

Flight plan parsing failed; only flown route is shown


Map Options




Map Legend


Flown Route
Filed Route
Departure Airport
Arrival Airport
Navaid (VOR, NDB)
Fix

Horizontal Profiles

Position Reports

Time Latitude Longitude Heading Altitude Ground
Speed
31-May-23 15:14 35.138572 -111.674336 350 7001ft 0kts
31-May-23 15:15 35.138572 -111.674336 350 7001ft 0kts
31-May-23 15:16 35.138572 -111.674336 350 7001ft 0kts
31-May-23 15:17 35.138572 -111.674336 350 7001ft 0kts
31-May-23 15:18 35.138572 -111.674336 350 7001ft 0kts
31-May-23 15:19 35.138572 -111.674336 350 7001ft 0kts
31-May-23 15:20 35.138576 -111.674336 352 7001ft 0kts
31-May-23 15:21 35.139789 -111.671609 41 6997ft 16kts
31-May-23 15:22 35.144130 -111.666969 41 6999ft 24kts
31-May-23 15:23 35.148875 -111.661901 40 6998ft 20kts
31-May-23 15:24 35.145123 -111.664116 221 7000ft 109kts
31-May-23 15:25 35.097990 -111.685285 195 9769ft 230kts
31-May-23 15:26 35.031854 -111.668785 140 12981ft 275kts
31-May-23 15:27 35.038139 -111.576786 38 12959ft 343kts
31-May-23 15:28 35.119194 -111.513518 35 12965ft 346kts
31-May-23 15:29 35.200928 -111.448798 34 14719ft 357kts
31-May-23 15:30 35.283898 -111.379225 40 17198ft 370kts
31-May-23 15:31 35.366731 -111.302787 40 20748ft 356kts
31-May-23 15:32 35.447095 -111.227754 39 23875ft 373kts
31-May-23 15:33 35.531689 -111.148590 38 26363ft 393kts
31-May-23 15:35 35.620904 -111.064874 38 28572ft 412kts
31-May-23 15:36 35.713249 -110.977923 37 30780ft 419kts
31-May-23 15:37 35.805178 -110.891136 37 33025ft 414kts
31-May-23 15:38 35.896170 -110.804963 37 34632ft 422kts
31-May-23 15:39 35.994168 -110.711859 37 34667ft 462kts
31-May-23 15:40 36.098594 -110.612333 38 34674ft 485kts
31-May-23 15:41 36.205201 -110.510376 38 34681ft 483kts
31-May-23 15:42 36.311427 -110.408415 38 34690ft 484kts
31-May-23 15:43 36.417730 -110.306012 38 34692ft 484kts
31-May-23 15:44 36.524032 -110.203281 38 34680ft 484kts
31-May-23 15:45 36.630026 -110.100451 39 34660ft 483kts
31-May-23 15:46 36.735990 -109.997263 39 34639ft 483kts
31-May-23 15:47 36.842058 -109.893635 39 34619ft 483kts
31-May-23 15:48 36.943740 -109.793917 39 33432ft 458kts
31-May-23 15:49 37.045436 -109.693846 39 31888ft 469kts
31-May-23 15:50 37.148262 -109.592296 40 30442ft 471kts
31-May-23 15:51 37.251030 -109.490447 40 28967ft 470kts
31-May-23 15:52 37.353303 -109.388746 41 27504ft 468kts
31-May-23 15:53 37.454799 -109.287452 41 26057ft 465kts
31-May-23 15:54 37.554847 -109.187247 41 24597ft 442kts
31-May-23 15:55 37.647825 -109.093727 41 23111ft 415kts
31-May-23 15:56 37.736810 -109.004012 40 21491ft 404kts
31-May-23 15:57 37.816798 -108.908102 66 19976ft 387kts
31-May-23 15:58 37.858000 -108.789228 68 18554ft 357kts
31-May-23 15:59 37.897640 -108.674629 69 17065ft 369kts
31-May-23 16:00 37.940641 -108.549938 69 15603ft 388kts
31-May-23 16:01 37.982367 -108.428262 69 14650ft 372kts
31-May-23 16:01 38.014843 -108.333290 69 13815ft 342kts
31-May-23 16:02 38.029050 -108.222052 115 12651ft 305kts
31-May-23 16:04 37.996235 -108.111498 106 12375ft 285kts
31-May-23 16:05 37.975766 -108.013295 108 10661ft 283kts
31-May-23 16:06 37.962672 -107.953202 108 9639ft 130kts
31-May-23 16:06 37.955547 -107.916945 106 9019ft 118kts
31-May-23 16:07 37.953580 -107.902155 285 9032ft 16kts
31-May-23 16:08 37.954023 -107.902819 291 9034ft 0kts

Navigation Log

Ident Type
Flight plan parsing failed, navigation log unavailable